Time;durP1;ratioP1;P1;durP2;ratioP2;P2;SDS_P1;SDS_P2;PMS_P1;PMS_P2;Temp;Humidity;BMP_temperature;BMP_pressure;BME280_temperature;BME280_humidity;BME280_pressure;Samples;Min_cycle;Max_cycle;Signal;HPM_P1;HPM_P2
2021/11/09 00:01:54;;;;;;;16.50;9.93;;;;;;;;;;5095767;28;20430;-68
2021/11/09 00:04:24;;;;;;;11.53;8.57;;;;;;;;;;5114699;28;20829;-68
2021/11/09 00:10:08;;;;;;;12.10;8.33;;;;;;;;;;5074535;28;20424;-68
2021/11/09 00:12:45;;;;;;;16.50;9.83;;;;;;;;;;5076636;28;20468;-68
2021/11/09 00:15:14;;;;;;;15.73;9.67;;;;;;;;;;5075793;28;20412;-68
2021/11/09 00:17:41;;;;;;;18.93;8.57;;;;;;;;;;5084885;28;20416;-68
2021/11/09 00:20:08;;;;;;;18.37;9.27;;;;;;;;;;5096326;28;20948;-68
2021/11/09 00:22:34;;;;;;;15.20;8.60;;;;;;;;;;5093067;28;20418;-68
2021/11/09 00:25:00;;;;;;;15.67;9.30;;;;;;;;;;5074362;28;20444;-68
2021/11/09 00:27:26;;;;;;;14.83;8.93;;;;;;;;;;5076295;28;20503;-67
2021/11/09 00:29:52;;;;;;;18.83;10.00;;;;;;;;;;5075471;28;20909;-68
2021/11/09 00:32:19;;;;;;;16.60;9.47;;;;;;;;;;5075359;28;20401;-68
2021/11/09 00:34:45;;;;;;;16.20;8.77;;;;;;;;;;5075413;28;20436;-68
2021/11/09 00:37:12;;;;;;;14.67;8.60;;;;;;;;;;5074146;28;20436;-68
2021/11/09 00:39:40;;;;;;;16.27;9.30;;;;;;;;;;5094683;28;20442;-68
2021/11/09 00:42:06;;;;;;;15.80;10.03;;;;;;;;;;5095426;28;20541;-67
2021/11/09 00:44:32;;;;;;;16.73;10.10;;;;;;;;;;5095709;28;20534;-68
2021/11/09 00:46:58;;;;;;;14.50;10.33;;;;;;;;;;5095633;28;20405;-68
2021/11/09 00:49:24;;;;;;;13.63;8.80;;;;;;;;;;5080323;28;20440;-68
2021/11/09 00:51:51;;;;;;;16.10;9.50;;;;;;;;;;5075158;28;20490;-68
2021/11/09 00:54:17;;;;;;;14.50;9.30;;;;;;;;;;5075056;28;20407;-68
2021/11/09 00:56:44;;;;;;;15.43;9.10;;;;;;;;;;5075238;28;20495;-68
2021/11/09 00:59:10;;;;;;;18.23;10.07;;;;;;;;;;5084948;28;20440;-68
2021/11/09 01:01:36;;;;;;;15.43;8.70;;;;;;;;;;5075891;28;20823;-68
2021/11/09 01:04:03;;;;;;;14.93;8.90;;;;;;;;;;5075189;28;20539;-68
2021/11/09 01:06:29;;;;;;;17.03;8.93;;;;;;;;;;5075692;28;20398;-68
2021/11/09 01:08:55;;;;;;;19.70;9.77;;;;;;;;;;5095079;28;20430;-68
2021/11/09 01:11:21;;;;;;;15.60;9.27;;;;;;;;;;5095272;28;20404;-68
2021/11/09 01:13:47;;;;;;;14.90;9.97;;;;;;;;;;5094798;28;20408;-68
2021/11/09 01:16:14;;;;;;;14.40;10.00;;;;;;;;;;5094953;28;20803;-68
2021/11/09 01:18:43;;;;;;;17.53;9.40;;;;;;;;;;5078206;28;20811;-68
2021/11/09 01:21:13;;;;;;;12.13;8.90;;;;;;;;;;5074840;28;20409;-68
2021/11/09 01:23:40;;;;;;;17.40;9.37;;;;;;;;;;5081899;28;20792;-68
2021/11/09 01:26:07;;;;;;;13.67;9.60;;;;;;;;;;5094756;28;20431;-68
2021/11/09 01:28:33;;;;;;;14.43;7.43;;;;;;;;;;5081784;28;20452;-68
2021/11/09 01:30:59;;;;;;;17.20;8.00;;;;;;;;;;5073029;28;20409;-68
2021/11/09 01:33:25;;;;;;;11.80;8.20;;;;;;;;;;5074777;28;20530;-68
2021/11/09 01:35:52;;;;;;;14.90;7.37;;;;;;;;;;5074576;28;20405;-68
2021/11/09 01:38:18;;;;;;;14.07;7.97;;;;;;;;;;5080563;28;20519;-68
2021/11/09 01:40:44;;;;;;;18.53;8.00;;;;;;;;;;5115040;28;20453;-68
2021/11/09 01:43:11;;;;;;;15.27;7.43;;;;;;;;;;5114831;28;20446;-68
2021/11/09 01:45:37;;;;;;;18.63;7.60;;;;;;;;;;5114748;28;20407;-68
2021/11/09 01:48:04;;;;;;;16.53;7.37;;;;;;;;;;5111374;28;20423;-68
2021/11/09 01:50:38;;;;;;;11.70;7.40;;;;;;;;;;5094354;28;20491;-68
2021/11/09 01:53:05;;;;;;;17.03;6.87;;;;;;;;;;5094624;28;20458;-68
2021/11/09 01:55:32;;;;;;;13.37;6.43;;;;;;;;;;5094093;28;20439;-68
2021/11/09 01:57:58;;;;;;;13.40;6.43;;;;;;;;;;5094069;28;20432;-68
2021/11/09 02:00:28;;;;;;;9.73;6.50;;;;;;;;;;5084327;28;20508;-67
2021/11/09 02:02:56;;;;;;;13.80;8.00;;;;;;;;;;5094035;28;20404;-67
2021/11/09 02:05:23;;;;;;;9.50;6.60;;;;;;;;;;5092599;28;20498;-67
2021/11/09 02:07:52;;;;;;;13.87;8.03;;;;;;;;;;5093915;28;20426;-67
2021/11/09 02:10:19;;;;;;;13.00;6.73;;;;;;;;;;5077621;28;20409;-67
2021/11/09 02:12:45;;;;;;;10.00;5.87;;;;;;;;;;5073584;28;20506;-67
2021/11/09 02:15:12;;;;;;;15.80;6.70;;;;;;;;;;5078729;28;20431;-67
2021/11/09 02:17:39;;;;;;;12.10;6.60;;;;;;;;;;5078162;28;20423;-68
2021/11/09 02:20:06;;;;;;;12.00;6.20;;;;;;;;;;5083612;28;21038;-69
2021/11/09 02:22:34;;;;;;;11.63;6.50;;;;;;;;;;5083575;28;20487;-67
2021/11/09 02:25:00;;;;;;;14.60;7.27;;;;;;;;;;5073138;28;20543;-67
2021/11/09 02:27:26;;;;;;;10.73;5.80;;;;;;;;;;5072866;28;20432;-67
2021/11/09 02:29:53;;;;;;;8.37;6.37;;;;;;;;;;5086866;28;20431;-67
2021/11/09 02:32:19;;;;;;;12.60;6.53;;;;;;;;;;5092190;28;20935;-67
2021/11/09 02:34:45;;;;;;;14.20;7.30;;;;;;;;;;5093755;28;20820;-68
2021/11/09 02:37:11;;;;;;;15.07;7.67;;;;;;;;;;5093556;28;20787;-67
2021/11/09 02:39:37;;;;;;;14.73;6.33;;;;;;;;;;5090456;28;20546;-67
2021/11/09 02:42:08;;;;;;;11.43;6.87;;;;;;;;;;5093354;28;20919;-67
2021/11/09 02:44:34;;;;;;;15.80;6.90;;;;;;;;;;5093346;28;20445;-68
2021/11/09 02:47:05;;;;;;;11.10;6.70;;;;;;;;;;5099934;28;20918;-67
2021/11/09 02:49:48;;;;;;;12.73;6.00;;;;;;;;;;5089080;28;20514;-67
2021/11/09 02:52:14;;;;;;;15.63;7.13;;;;;;;;;;5080601;28;20931;-67
2021/11/09 02:54:44;;;;;;;14.33;7.40;;;;;;;;;;5080537;28;20401;-67
2021/11/09 03:00:22;;;;;;;8.27;6.20;;;;;;;;;;5056803;28;20424;-67
2021/11/09 03:02:53;;;;;;;13.13;6.50;;;;;;;;;;5079040;28;20429;-67
2021/11/09 03:05:30;;;;;;;18.07;7.40;;;;;;;;;;5082628;28;20916;-67
2021/11/09 03:08:15;;;;;;;10.40;7.53;;;;;;;;;;5082674;28;20511;-68
2021/11/09 03:10:45;;;;;;;12.03;6.63;;;;;;;;;;5099660;28;20404;-67
2021/11/09 03:13:11;;;;;;;14.10;7.70;;;;;;;;;;5101041;28;20839;-67
2021/11/09 03:15:37;;;;;;;14.60;8.40;;;;;;;;;;5101863;28;20399;-67
2021/11/09 03:18:07;;;;;;;12.70;7.40;;;;;;;;;;5100470;28;20418;-67
2021/11/09 03:45:22;;;;;;;16.33;8.50;;;;;;;;;;5077467;28;20443;-67
2021/11/09 03:47:52;;;;;;;11.00;8.30;;;;;;;;;;5096094;28;20488;-67
2021/11/09 03:50:20;;;;;;;16.00;8.67;;;;;;;;;;5096929;28;20392;-67
2021/11/09 03:55:19;;;;;;;12.33;7.10;;;;;;;;;;5098313;28;20400;-67
2021/11/09 03:57:49;;;;;;;14.00;8.57;;;;;;;;;;5096742;28;20380;-67
2021/11/09 04:00:31;;;;;;;14.83;7.50;;;;;;;;;;5079007;28;20397;-67
2021/11/09 04:05:52;;;;;;;16.00;8.90;;;;;;;;;;5080097;28;20511;-67
2021/11/09 04:08:56;;;;;;;15.93;8.60;;;;;;;;;;5100525;28;20435;-68
2021/11/09 04:16:29;;;;;;;20.90;8.80;;;;;;;;;;5086474;28;20491;-67
2021/11/09 04:32:07;;;;;;;19.03;10.10;;;;;;;;;;5015074;28;20431;-83
2021/11/09 05:09:35;;;;;;;19.17;9.93;;;;;;;;;;5036308;28;20927;-63
2021/11/09 05:12:01;;;;;;;26.73;10.17;;;;;;;;;;5035974;28;20420;-62
2021/11/09 05:14:29;;;;;;;16.47;9.67;;;;;;;;;;5050045;28;20410;-62
2021/11/09 05:16:55;;;;;;;15.80;9.70;;;;;;;;;;5056187;28;20777;-63
2021/11/09 05:19:21;;;;;;;17.30;9.23;;;;;;;;;;5055660;28;20900;-62
2021/11/09 05:21:48;;;;;;;17.97;10.60;;;;;;;;;;5055788;28;20971;-62
2021/11/09 05:24:14;;;;;;;18.27;9.10;;;;;;;;;;5054639;28;20460;-62
2021/11/09 05:26:44;;;;;;;14.50;8.30;;;;;;;;;;5055466;28;20409;-62
2021/11/09 05:29:11;;;;;;;18.57;9.27;;;;;;;;;;5055865;28;20425;-62
2021/11/09 05:31:37;;;;;;;17.87;10.43;;;;;;;;;;5055451;28;20398;-62
2021/11/09 05:34:04;;;;;;;10.43;8.23;;;;;;;;;;5049372;28;20419;-62
2021/11/09 05:36:33;;;;;;;15.50;9.10;;;;;;;;;;5035823;28;20418;-64
2021/11/09 05:39:29;;;;;;;14.73;9.20;;;;;;;;;;5035412;28;20864;-63
2021/11/09 05:41:50;;;;;;;14.50;10.30;;;;;;;;;;5034857;28;20931;-63
2021/11/09 05:44:16;;;;;;;16.90;10.53;;;;;;;;;;5036037;28;20541;-62
2021/11/09 05:46:42;;;;;;;17.90;11.20;;;;;;;;;;5035157;28;20398;-62
2021/11/09 05:49:08;;;;;;;20.90;9.57;;;;;;;;;;5035369;28;20446;-62
2021/11/09 05:51:35;;;;;;;15.47;8.43;;;;;;;;;;5035121;28;20399;-63
2021/11/09 05:54:01;;;;;;;15.73;11.37;;;;;;;;;;5034677;28;20402;-62
2021/11/09 05:56:28;;;;;;;19.83;9.70;;;;;;;;;;5054026;28;20425;-62
2021/11/09 05:58:54;;;;;;;10.43;8.23;;;;;;;;;;5056382;28;20433;-62
2021/11/09 06:01:20;;;;;;;12.73;8.73;;;;;;;;;;5073882;28;20411;-62
2021/11/09 06:03:46;;;;;;;18.57;9.17;;;;;;;;;;5074465;28;20510;-62
2021/11/09 06:06:12;;;;;;;14.33;8.87;;;;;;;;;;5059635;28;20440;-63
2021/11/09 06:08:39;;;;;;;13.70;9.50;;;;;;;;;;5054569;28;20422;-62
2021/11/09 06:11:05;;;;;;;12.87;9.37;;;;;;;;;;5054512;28;20481;-62
2021/11/09 06:13:31;;;;;;;13.33;9.67;;;;;;;;;;5054463;28;20398;-63
2021/11/09 06:15:57;;;;;;;16.47;12.20;;;;;;;;;;5045618;28;20475;-63
2021/11/09 06:18:23;;;;;;;14.80;10.53;;;;;;;;;;5035548;28;21010;-62
2021/11/09 06:20:49;;;;;;;14.40;9.47;;;;;;;;;;5034236;28;20406;-62
2021/11/09 06:23:16;;;;;;;15.57;11.00;;;;;;;;;;5034123;28;20411;-62
2021/11/09 06:25:43;;;;;;;14.83;10.67;;;;;;;;;;5050286;28;20406;-63
2021/11/09 06:28:09;;;;;;;18.60;11.30;;;;;;;;;;5054103;28;20470;-62
2021/11/09 06:30:35;;;;;;;17.67;11.27;;;;;;;;;;5054356;28;20402;-62
2021/11/09 06:33:01;;;;;;;21.37;12.53;;;;;;;;;;5054359;28;20397;-62
2021/11/09 06:35:27;;;;;;;19.50;12.50;;;;;;;;;;5048047;28;20933;-62
2021/11/09 06:37:53;;;;;;;15.03;10.90;;;;;;;;;;5034279;28;20421;-63
2021/11/09 06:40:20;;;;;;;18.37;11.57;;;;;;;;;;5034304;28;20399;-63
2021/11/09 06:42:47;;;;;;;20.63;13.83;;;;;;;;;;5034216;28;20434;-63
2021/11/09 06:45:13;;;;;;;22.57;15.00;;;;;;;;;;5034593;28;20508;-62
2021/11/09 06:47:39;;;;;;;16.77;13.03;;;;;;;;;;5034565;28;20418;-62
2021/11/09 06:50:08;;;;;;;16.90;13.70;;;;;;;;;;5034195;28;20422;-63
2021/11/09 06:52:34;;;;;;;22.17;14.67;;;;;;;;;;5034478;28;20411;-63
2021/11/09 06:55:02;;;;;;;21.57;13.60;;;;;;;;;;5034182;28;20434;-63
2021/11/09 06:57:28;;;;;;;18.27;13.40;;;;;;;;;;5034160;28;20502;-62
2021/11/09 06:59:54;;;;;;;30.93;14.63;;;;;;;;;;5054554;28;20429;-62
2021/11/09 07:02:20;;;;;;;21.30;13.30;;;;;;;;;;5074026;28;20439;-64
2021/11/09 07:04:46;;;;;;;20.10;14.90;;;;;;;;;;5061692;28;20454;-62
2021/11/09 07:07:12;;;;;;;18.20;13.00;;;;;;;;;;5037216;28;20402;-61
2021/11/09 07:09:38;;;;;;;15.57;11.43;;;;;;;;;;5039194;28;20441;-62
2021/11/09 07:12:05;;;;;;;15.80;11.93;;;;;;;;;;5042453;28;20410;-63
2021/11/09 07:14:32;;;;;;;22.50;12.30;;;;;;;;;;5047316;28;20460;-63
2021/11/09 07:16:58;;;;;;;21.37;12.73;;;;;;;;;;5043883;28;20754;-64
2021/11/09 07:19:24;;;;;;;16.37;12.77;;;;;;;;;;5033576;28;20505;-63
2021/11/09 07:21:51;;;;;;;18.03;11.90;;;;;;;;;;5033132;28;20411;-63
2021/11/09 07:24:17;;;;;;;16.13;10.97;;;;;;;;;;5036262;28;20458;-63
2021/11/09 07:26:43;;;;;;;15.83;11.83;;;;;;;;;;5034798;28;20421;-64
2021/11/09 07:29:10;;;;;;;16.40;12.33;;;;;;;;;;5038357;28;20441;-64
2021/11/09 07:31:36;;;;;;;15.67;11.30;;;;;;;;;;5055216;28;20413;-64
2021/11/09 07:34:03;;;;;;;16.90;11.80;;;;;;;;;;5051853;28;20457;-63
2021/11/09 07:36:29;;;;;;;16.77;11.83;;;;;;;;;;5043156;28;20413;-64
2021/11/09 07:38:58;;;;;;;20.53;12.10;;;;;;;;;;5046049;28;20448;-66
2021/11/09 07:41:25;;;;;;;25.60;13.40;;;;;;;;;;5041377;28;20468;-67
2021/11/09 07:43:51;;;;;;;16.13;11.67;;;;;;;;;;5040288;28;20464;-66
2021/11/09 07:46:18;;;;;;;21.03;11.40;;;;;;;;;;5044126;28;20414;-65
2021/11/09 07:48:44;;;;;;;19.20;12.67;;;;;;;;;;5047115;28;20573;-64
2021/11/09 07:51:10;;;;;;;14.67;10.40;;;;;;;;;;5052361;28;20410;-63
2021/11/09 07:53:40;;;;;;;20.83;11.23;;;;;;;;;;5052871;28;20421;-64
2021/11/09 08:01:09;;;;;;;11.93;8.80;;;;;;;;;;5049283;28;20406;-68
2021/11/09 08:04:11;;;;;;;12.90;9.80;;;;;;;;;;5047666;28;20459;-69
2021/11/09 08:06:31;;;;;;;12.00;9.30;;;;;;;;;;5035526;28;21050;-70
2021/11/09 08:11:23;;;;;;;15.47;10.60;;;;;;;;;;5041758;28;20195;-68
2021/11/09 08:13:49;;;;;;;18.17;10.40;;;;;;;;;;5046231;28;20877;-69
2021/11/09 08:16:16;;;;;;;15.37;11.40;;;;;;;;;;5046046;28;20420;-69
2021/11/09 08:18:43;;;;;;;17.20;11.00;;;;;;;;;;5046744;28;20516;-69
2021/11/09 08:21:09;;;;;;;17.37;11.10;;;;;;;;;;5043222;28;20754;-68
2021/11/09 08:23:35;;;;;;;13.97;10.80;;;;;;;;;;5040258;28;20521;-64
2021/11/09 08:26:03;;;;;;;13.37;10.57;;;;;;;;;;5048739;28;20418;-64
2021/11/09 08:28:29;;;;;;;18.67;11.30;;;;;;;;;;5046046;28;20472;-69
2021/11/09 08:31:01;;;;;;;18.33;11.90;;;;;;;;;;5052658;28;20501;-69
2021/11/09 08:33:29;;;;;;;14.20;10.70;;;;;;;;;;5047967;28;20403;-70
2021/11/09 08:35:57;;;;;;;16.90;10.70;;;;;;;;;;5051862;28;20467;-70
2021/11/09 08:38:23;;;;;;;16.30;11.40;;;;;;;;;;5040294;28;20815;-69
2021/11/09 08:40:52;;;;;;;19.30;10.20;;;;;;;;;;5045586;28;20409;-68
2021/11/09 08:43:20;;;;;;;12.77;9.70;;;;;;;;;;5044258;28;20458;-67
2021/11/09 08:45:57;;;;;;;18.57;10.60;;;;;;;;;;5044103;28;20418;-68
2021/11/09 08:48:25;;;;;;;21.67;11.33;;;;;;;;;;5048849;28;20418;-68
2021/11/09 08:50:54;;;;;;;18.87;10.37;;;;;;;;;;5047488;28;20464;-68
2021/11/09 08:53:35;;;;;;;16.60;9.90;;;;;;;;;;5044213;28;20410;-67
2021/11/09 09:04:13;;;;;;;13.90;9.80;;;;;;;;;;5047397;28;20455;-70
2021/11/09 09:06:40;;;;;;;12.67;9.30;;;;;;;;;;5038563;28;20415;-68
2021/11/09 09:09:06;;;;;;;15.90;8.60;;;;;;;;;;5046943;28;20438;-68
2021/11/09 09:11:33;;;;;;;15.70;9.10;;;;;;;;;;5042938;28;20924;-68
2021/11/09 09:13:59;;;;;;;13.20;9.50;;;;;;;;;;5042271;28;20421;-66
2021/11/09 09:16:26;;;;;;;13.30;9.37;;;;;;;;;;5046859;28;20415;-67
2021/11/09 09:18:54;;;;;;;18.33;11.10;;;;;;;;;;5043373;28;20934;-68
2021/11/09 09:24:17;;;;;;;15.63;11.37;;;;;;;;;;5022026;28;20506;-70
2021/11/09 09:31:55;;;;;;;18.77;11.37;;;;;;;;;;5051684;28;20413;-68
2021/11/09 09:56:19;;;;;;;16.73;8.53;;;;;;;;;;5048748;28;20910;-69
2021/11/09 09:58:45;;;;;;;10.80;8.23;;;;;;;;;;5061924;28;20431;-69
2021/11/09 10:01:12;;;;;;;11.93;7.33;;;;;;;;;;5037387;28;20847;-69
2021/11/09 10:03:40;;;;;;;11.90;7.97;;;;;;;;;;5040019;28;20443;-70
2021/11/09 10:06:07;;;;;;;10.77;7.60;;;;;;;;;;5045428;28;20415;-69
2021/11/09 10:08:46;;;;;;;12.50;7.83;;;;;;;;;;5042700;28;20567;-66
2021/11/09 10:11:31;;;;;;;9.27;7.07;;;;;;;;;;5041047;28;20769;-65
2021/11/09 10:13:57;;;;;;;9.57;7.30;;;;;;;;;;5052323;28;20429;-68
2021/11/09 10:16:23;;;;;;;17.70;7.20;;;;;;;;;;5042954;28;20419;-67
2021/11/09 10:18:49;;;;;;;13.23;7.87;;;;;;;;;;5048814;28;20499;-68
2021/11/09 10:21:16;;;;;;;13.83;7.77;;;;;;;;;;5043434;28;20506;-68
2021/11/09 10:23:42;;;;;;;11.80;8.07;;;;;;;;;;5045491;28;21001;-69
2021/11/09 10:26:10;;;;;;;11.98;6.70;;;;;;;;;;5043429;28;20900;-64
2021/11/09 10:28:36;;;;;;;12.30;6.07;;;;;;;;;;5049139;28;20278;-65
2021/11/09 10:31:07;;;;;;;12.33;6.93;;;;;;;;;;5048424;28;20422;-65
2021/11/09 10:33:52;;;;;;;13.03;6.47;;;;;;;;;;5038955;28;20434;-67
2021/11/09 10:36:19;;;;;;;9.03;6.20;;;;;;;;;;5038986;28;20422;-68
2021/11/09 10:38:45;;;;;;;9.37;5.43;;;;;;;;;;5043092;28;20985;-67
2021/11/09 10:41:13;;;;;;;17.50;6.53;;;;;;;;;;5039927;28;20469;-69
2021/11/09 10:43:39;;;;;;;12.33;6.50;;;;;;;;;;5045795;28;20441;-68
2021/11/09 10:46:05;;;;;;;10.60;6.40;;;;;;;;;;5046069;28;20478;-67
2021/11/09 10:48:33;;;;;;;14.43;5.40;;;;;;;;;;5036417;28;20440;-69
2021/11/09 10:51:00;;;;;;;11.97;5.50;;;;;;;;;;5041562;28;20412;-66
2021/11/09 10:56:11;;;;;;;9.33;5.17;;;;;;;;;;5039954;28;20413;-65
2021/11/09 11:06:17;;;;;;;10.17;5.13;;;;;;;;;;5046496;28;20421;-65
2021/11/09 11:08:50;;;;;;;7.63;4.50;;;;;;;;;;5042413;28;20514;-65
2021/11/09 11:11:16;;;;;;;8.93;4.60;;;;;;;;;;5046087;28;20512;-65
2021/11/09 11:13:42;;;;;;;8.50;4.10;;;;;;;;;;5039314;28;20409;-66
2021/11/09 11:16:12;;;;;;;9.17;4.43;;;;;;;;;;5038456;28;20418;-66
2021/11/09 11:18:40;;;;;;;5.13;3.50;;;;;;;;;;5046071;28;20869;-65
2021/11/09 11:21:07;;;;;;;7.80;3.90;;;;;;;;;;5043181;28;20465;-65
2021/11/09 11:23:34;;;;;;;7.77;4.80;;;;;;;;;;5034651;28;20776;-66
2021/11/09 11:26:00;;;;;;;9.07;4.50;;;;;;;;;;5041952;28;20814;-66
2021/11/09 11:28:28;;;;;;;10.00;4.50;;;;;;;;;;5044437;28;20517;-66
2021/11/09 11:30:54;;;;;;;3.93;3.47;;;;;;;;;;5041678;28;20801;-65
2021/11/09 11:33:21;;;;;;;6.17;4.20;;;;;;;;;;5048015;28;20765;-65
2021/11/09 11:35:47;;;;;;;5.40;4.07;;;;;;;;;;5041232;28;20418;-65
2021/11/09 11:38:14;;;;;;;7.23;3.63;;;;;;;;;;5046464;28;20460;-65
2021/11/09 11:40:40;;;;;;;6.60;4.10;;;;;;;;;;5037838;28;20415;-68
2021/11/09 11:43:06;;;;;;;6.90;4.20;;;;;;;;;;5043995;28;20434;-67
2021/11/09 11:45:51;;;;;;;6.53;4.10;;;;;;;;;;5041956;28;20450;-67
2021/11/09 11:48:17;;;;;;;7.43;4.20;;;;;;;;;;5040853;28;20461;-65
2021/11/09 11:50:44;;;;;;;7.03;3.90;;;;;;;;;;5047676;28;20887;-67
2021/11/09 11:53:10;;;;;;;7.93;4.20;;;;;;;;;;5046881;28;20413;-67
2021/11/09 11:55:38;;;;;;;7.30;4.63;;;;;;;;;;5042102;28;20415;-67
2021/11/09 11:58:04;;;;;;;10.23;4.60;;;;;;;;;;5049884;28;20411;-66
2021/11/09 12:00:31;;;;;;;7.15;4.78;;;;;;;;;;5054795;28;20417;-64
2021/11/09 12:03:02;;;;;;;5.40;4.80;;;;;;;;;;5048610;28;20269;-67
2021/11/09 12:05:37;;;;;;;7.23;4.87;;;;;;;;;;5045271;28;20580;-68
2021/11/09 12:08:03;;;;;;;7.20;4.57;;;;;;;;;;5045859;28;20413;-68
2021/11/09 12:10:58;;;;;;;6.20;4.20;;;;;;;;;;5045195;28;20460;-67
2021/11/09 12:13:25;;;;;;;6.37;4.30;;;;;;;;;;5037952;28;20429;-67
2021/11/09 12:15:57;;;;;;;12.90;4.83;;;;;;;;;;5044779;28;20898;-68
2021/11/09 12:18:29;;;;;;;6.43;4.30;;;;;;;;;;5048787;28;20492;-68
2021/11/09 12:20:56;;;;;;;6.63;4.27;;;;;;;;;;5041213;28;20488;-68
2021/11/09 12:23:22;;;;;;;6.63;3.93;;;;;;;;;;5050335;28;20909;-68
2021/11/09 12:25:49;;;;;;;10.50;5.00;;;;;;;;;;5050767;28;20450;-69
2021/11/09 12:28:20;;;;;;;6.67;5.27;;;;;;;;;;5052155;28;20433;-69
2021/11/09 12:30:48;;;;;;;8.67;4.30;;;;;;;;;;5049013;28;20406;-68
2021/11/09 12:33:25;;;;;;;9.57;4.80;;;;;;;;;;5051819;28;20410;-68
2021/11/09 12:36:05;;;;;;;9.03;4.30;;;;;;;;;;5048201;28;20865;-68
2021/11/09 12:38:31;;;;;;;11.30;4.93;;;;;;;;;;5042872;28;20445;-68
2021/11/09 12:40:57;;;;;;;10.83;5.17;;;;;;;;;;5043346;28;20426;-68
2021/11/09 12:43:33;;;;;;;9.33;5.73;;;;;;;;;;5050972;28;20837;-69
2021/11/09 12:46:03;;;;;;;8.27;5.43;;;;;;;;;;5044755;28;20870;-69
2021/11/09 12:48:31;;;;;;;8.80;4.20;;;;;;;;;;5044377;28;20444;-67
2021/11/09 12:51:05;;;;;;;6.80;4.93;;;;;;;;;;5042795;28;20455;-73
2021/11/09 12:53:31;;;;;;;9.23;5.10;;;;;;;;;;5044198;28;20421;-73
2021/11/09 12:56:09;;;;;;;14.80;7.97;;;;;;;;;;5050049;28;20417;-72
2021/11/09 12:59:00;;;;;;;7.70;5.27;;;;;;;;;;5044168;28;20453;-75
2021/11/09 13:06:36;;;;;;;8.90;5.17;;;;;;;;;;5045064;28;20390;-70
2021/11/09 13:09:16;;;;;;;10.17;5.90;;;;;;;;;;5047894;28;20434;-66
2021/11/09 13:11:44;;;;;;;9.73;6.20;;;;;;;;;;5045557;28;20405;-66
2021/11/09 13:14:11;;;;;;;7.10;6.00;;;;;;;;;;5044630;28;20410;-71
2021/11/09 13:16:41;;;;;;;9.80;5.77;;;;;;;;;;5044948;28;20457;-71
2021/11/09 13:19:07;;;;;;;11.50;6.13;;;;;;;;;;5042106;28;20466;-71
2021/11/09 13:21:35;;;;;;;9.37;5.67;;;;;;;;;;5044364;28;20426;-72
2021/11/09 13:24:01;;;;;;;9.17;6.10;;;;;;;;;;5049226;28;20457;-71
2021/11/09 13:26:27;;;;;;;9.93;6.60;;;;;;;;;;5041619;28;20426;-70
2021/11/09 13:28:53;;;;;;;13.03;7.17;;;;;;;;;;5050586;28;20446;-70
2021/11/09 13:31:20;;;;;;;11.90;7.30;;;;;;;;;;5042151;28;20419;-71
2021/11/09 13:33:47;;;;;;;10.80;6.73;;;;;;;;;;5045527;28;20422;-70
2021/11/09 13:36:17;;;;;;;13.80;7.70;;;;;;;;;;5033192;28;20422;-70
2021/11/09 13:38:43;;;;;;;8.97;6.93;;;;;;;;;;5044485;28;20949;-67
2021/11/09 13:41:15;;;;;;;10.90;7.13;;;;;;;;;;5048797;28;20764;-70
2021/11/09 13:43:52;;;;;;;12.10;7.30;;;;;;;;;;5045490;28;20412;-71
2021/11/09 13:46:20;;;;;;;13.10;8.47;;;;;;;;;;5043436;28;21264;-69
2021/11/09 13:48:51;;;;;;;11.77;7.90;;;;;;;;;;5044776;28;20811;-70
2021/11/09 13:51:21;;;;;;;8.50;6.80;;;;;;;;;;5051400;28;20464;-71
2021/11/09 13:53:48;;;;;;;10.50;6.80;;;;;;;;;;5045384;28;20914;-69
2021/11/09 13:56:16;;;;;;;9.37;7.40;;;;;;;;;;5045889;28;20422;-70
2021/11/09 13:58:52;;;;;;;13.87;8.20;;;;;;;;;;5039563;28;20434;-69
2021/11/09 14:01:30;;;;;;;14.73;7.80;;;;;;;;;;5055880;28;20444;-70
2021/11/09 14:04:03;;;;;;;12.40;6.80;;;;;;;;;;5039009;28;20449;-71
2021/11/09 14:16:57;;;;;;;12.73;7.57;;;;;;;;;;5050178;28;20755;-68
2021/11/09 14:19:32;;;;;;;11.80;7.60;;;;;;;;;;5049627;28;20444;-70
2021/11/09 14:21:59;;;;;;;11.67;8.30;;;;;;;;;;5041895;28;20510;-71
2021/11/09 14:24:27;;;;;;;9.90;7.07;;;;;;;;;;5047569;28;20453;-70
2021/11/09 14:27:07;;;;;;;12.33;6.97;;;;;;;;;;5044028;28;20406;-71
2021/11/09 14:29:35;;;;;;;10.67;5.97;;;;;;;;;;5041480;28;20469;-64
2021/11/09 14:32:05;;;;;;;12.50;6.83;;;;;;;;;;5047096;28;20420;-65
2021/11/09 14:34:32;;;;;;;9.17;6.87;;;;;;;;;;5046480;28;20500;-65
2021/11/09 14:37:13;;;;;;;12.00;7.00;;;;;;;;;;5044015;28;20418;-67
2021/11/09 14:39:41;;;;;;;12.60;7.20;;;;;;;;;;5038966;28;20494;-65
2021/11/09 14:42:13;;;;;;;10.50;7.23;;;;;;;;;;5043407;28;20809;-65
2021/11/09 14:44:58;;;;;;;9.83;6.37;;;;;;;;;;5040595;28;20456;-65
2021/11/09 14:47:25;;;;;;;16.20;7.10;;;;;;;;;;5043510;28;20437;-66
2021/11/09 14:50:05;;;;;;;8.93;6.47;;;;;;;;;;5046108;28;20437;-66
2021/11/09 14:52:35;;;;;;;11.30;6.87;;;;;;;;;;5046941;28;20406;-67
2021/11/09 14:55:41;;;;;;;10.20;7.10;;;;;;;;;;5047061;28;20414;-64
2021/11/09 14:58:05;;;;;;;10.97;7.70;;;;;;;;;;5038081;28;20413;-69
2021/11/09 15:00:31;;;;;;;16.97;7.53;;;;;;;;;;5049031;28;20409;-66
2021/11/09 15:03:04;;;;;;;9.23;6.90;;;;;;;;;;5039211;28;20469;-67
2021/11/09 15:05:33;;;;;;;10.83;7.20;;;;;;;;;;5038732;28;20548;-63
2021/11/09 15:08:09;;;;;;;13.07;7.73;;;;;;;;;;5044064;28;20456;-69
2021/11/09 15:10:56;;;;;;;9.60;6.90;;;;;;;;;;5042468;28;20409;-68
2021/11/09 15:13:44;;;;;;;12.00;7.73;;;;;;;;;;5040647;28;20406;-63
2021/11/09 15:30:08;;;;;;;13.73;8.20;;;;;;;;;;5042178;28;20434;-67
2021/11/09 15:32:34;;;;;;;13.10;7.40;;;;;;;;;;5045308;28;20417;-66
2021/11/09 15:39:59;;;;;;;9.53;6.70;;;;;;;;;;5046297;28;20430;-65
2021/11/09 15:42:27;;;;;;;10.73;7.40;;;;;;;;;;5049470;28;20547;-63
2021/11/09 15:44:53;;;;;;;7.73;6.50;;;;;;;;;;5044729;28;20453;-67
2021/11/09 15:47:20;;;;;;;8.23;5.57;;;;;;;;;;5041131;28;21044;-66
2021/11/09 15:49:46;;;;;;;9.23;6.50;;;;;;;;;;5050367;28;20945;-67
2021/11/09 15:52:13;;;;;;;9.20;6.17;;;;;;;;;;5046475;28;20860;-67
2021/11/09 15:54:39;;;;;;;17.80;7.07;;;;;;;;;;5043264;28;20425;-65
2021/11/09 15:57:05;;;;;;;10.73;5.90;;;;;;;;;;5047936;28;20425;-67
2021/11/09 15:59:31;;;;;;;8.93;6.10;;;;;;;;;;5049682;28;20444;-67
2021/11/09 16:01:58;;;;;;;8.23;6.40;;;;;;;;;;5046197;28;20516;-64
2021/11/09 16:04:31;;;;;;;11.13;6.67;;;;;;;;;;5050550;28;20450;-65
2021/11/09 16:06:59;;;;;;;8.47;6.20;;;;;;;;;;5044336;28;20545;-65
2021/11/09 16:09:25;;;;;;;11.03;7.10;;;;;;;;;;5045787;28;20441;-69
2021/11/09 16:11:51;;;;;;;8.73;6.00;;;;;;;;;;5040956;28;20414;-66
2021/11/09 16:14:18;;;;;;;14.05;6.50;;;;;;;;;;5047935;28;20423;-69
2021/11/09 16:16:44;;;;;;;8.77;7.07;;;;;;;;;;5052835;28;20741;-69
2021/11/09 16:19:10;;;;;;;14.10;7.50;;;;;;;;;;5046941;28;20846;-71
2021/11/09 16:21:37;;;;;;;10.97;6.60;;;;;;;;;;5049190;28;20509;-73
2021/11/09 16:24:04;;;;;;;11.07;5.87;;;;;;;;;;5040069;28;20493;-68
2021/11/09 16:26:30;;;;;;;7.33;5.73;;;;;;;;;;5043389;28;20401;-64
2021/11/09 16:28:56;;;;;;;8.93;5.90;;;;;;;;;;5045730;28;20441;-66
2021/11/09 16:31:22;;;;;;;15.70;7.63;;;;;;;;;;5046393;28;20410;-66
2021/11/09 16:33:53;;;;;;;9.30;5.87;;;;;;;;;;5057608;28;20456;-64
2021/11/09 16:36:20;;;;;;;10.97;6.73;;;;;;;;;;5046046;28;20487;-62
2021/11/09 16:38:50;;;;;;;14.93;6.47;;;;;;;;;;5063359;28;20437;-64
2021/11/09 16:41:26;;;;;;;9.90;5.40;;;;;;;;;;5049291;28;20457;-64
2021/11/09 16:44:01;;;;;;;7.40;5.80;;;;;;;;;;5049276;28;20406;-64
2021/11/09 16:51:47;;;;;;;6.67;5.00;;;;;;;;;;5047785;28;20410;-63
2021/11/09 16:54:25;;;;;;;12.13;6.47;;;;;;;;;;5053438;28;20414;-63
2021/11/09 17:00:29;;;;;;;7.90;5.90;;;;;;;;;;5050061;28;20986;-63
2021/11/09 18:20:06;;;;;;;8.90;7.27;;;;;;;;;;5034382;28;20936;-64
2021/11/09 18:22:36;;;;;;;10.30;6.47;;;;;;;;;;5034831;28;20926;-64
2021/11/09 18:25:03;;;;;;;8.70;6.03;;;;;;;;;;5033998;28;20450;-64
2021/11/09 18:27:29;;;;;;;9.30;6.90;;;;;;;;;;5042424;28;20509;-63
2021/11/09 18:29:55;;;;;;;12.70;7.90;;;;;;;;;;5054424;28;20781;-64
2021/11/09 18:32:21;;;;;;;10.80;6.33;;;;;;;;;;5054357;28;20398;-63
2021/11/09 18:34:48;;;;;;;9.90;6.20;;;;;;;;;;5052999;28;20437;-64
2021/11/09 18:37:15;;;;;;;11.87;7.17;;;;;;;;;;5052017;28;20409;-64
2021/11/09 18:39:42;;;;;;;10.30;6.70;;;;;;;;;;5054087;28;20425;-63
2021/11/09 18:42:08;;;;;;;10.57;6.83;;;;;;;;;;5036533;28;20525;-65
2021/11/09 18:44:35;;;;;;;9.63;7.43;;;;;;;;;;5049207;28;20446;-64
2021/11/09 18:47:02;;;;;;;11.40;7.27;;;;;;;;;;5033798;28;20422;-63
2021/11/09 18:49:28;;;;;;;13.60;8.00;;;;;;;;;;5044573;28;20433;-65
2021/11/09 18:51:54;;;;;;;10.80;8.07;;;;;;;;;;5053644;28;20402;-63
2021/11/09 18:54:20;;;;;;;8.43;7.20;;;;;;;;;;5053737;28;20428;-64
2021/11/09 18:56:49;;;;;;;16.03;11.90;;;;;;;;;;5053805;28;20412;-65
2021/11/09 18:59:23;;;;;;;13.20;8.70;;;;;;;;;;5046895;28;20435;-64
2021/11/09 19:01:52;;;;;;;10.50;7.93;;;;;;;;;;5033448;28;20806;-64
2021/11/09 19:04:19;;;;;;;11.50;7.77;;;;;;;;;;5048608;28;20460;-64
2021/11/09 19:06:45;;;;;;;20.80;8.80;;;;;;;;;;5048828;28;20997;-63